sensor_id;sensor_type;location;lat;lon;timestamp;temperature;humidity
19200;DHT22;9732;52.498;5.408;2023-06-10T00:02:14;21.70;99.90
19200;DHT22;9732;52.498;5.408;2023-06-10T00:04:44;21.70;99.90
19200;DHT22;9732;52.498;5.408;2023-06-10T00:07:12;21.70;99.90
19200;DHT22;9732;52.498;5.408;2023-06-10T00:09:39;21.70;99.90
19200;DHT22;9732;52.498;5.408;2023-06-10T00:12:07;21.70;99.90
19200;DHT22;9732;52.498;5.408;2023-06-10T00:14:39;21.70;99.90
19200;DHT22;9732;52.498;5.408;2023-06-10T00:17:07;21.70;99.90
19200;DHT22;9732;52.498;5.408;2023-06-10T00:19:35;21.70;99.90
19200;DHT22;9732;52.498;5.408;2023-06-10T00:22:09;21.60;99.90
19200;DHT22;9732;52.498;5.408;2023-06-10T00:24:38;21.70;99.90
19200;DHT22;9732;52.498;5.408;2023-06-10T00:27:07;21.60;99.90
19200;DHT22;9732;52.498;5.408;2023-06-10T00:29:34;21.60;99.90
19200;DHT22;9732;52.498;5.408;2023-06-10T00:32:01;21.50;99.90
19200;DHT22;9732;52.498;5.408;2023-06-10T00:34:27;21.50;99.90
19200;DHT22;9732;52.498;5.408;2023-06-10T00:36:54;21.50;99.90
19200;DHT22;9732;52.498;5.408;2023-06-10T00:39:22;21.40;99.90
19200;DHT22;9732;52.498;5.408;2023-06-10T00:41:49;21.40;99.90
19200;DHT22;9732;52.498;5.408;2023-06-10T00:44:16;21.40;99.90
19200;DHT22;9732;52.498;5.408;2023-06-10T00:46:43;21.30;99.90
19200;DHT22;9732;52.498;5.408;2023-06-10T00:49:10;21.30;99.90
19200;DHT22;9732;52.498;5.408;2023-06-10T00:51:36;21.30;99.90
19200;DHT22;9732;52.498;5.408;2023-06-10T00:54:05;21.30;99.90
19200;DHT22;9732;52.498;5.408;2023-06-10T00:56:35;21.20;99.90
19200;DHT22;9732;52.498;5.408;2023-06-10T00:59:02;21.30;99.90
19200;DHT22;9732;52.498;5.408;2023-06-10T01:01:29;21.20;99.90
19200;DHT22;9732;52.498;5.408;2023-06-10T01:03:57;21.20;99.90
19200;DHT22;9732;52.498;5.408;2023-06-10T01:06:30;21.20;99.90
19200;DHT22;9732;52.498;5.408;2023-06-10T01:09:06;21.10;99.90
19200;DHT22;9732;52.498;5.408;2023-06-10T01:11:41;21.10;99.90
19200;DHT22;9732;52.498;5.408;2023-06-10T01:14:10;21.00;99.90
19200;DHT22;9732;52.498;5.408;2023-06-10T01:16:37;21.00;99.90
19200;DHT22;9732;52.498;5.408;2023-06-10T01:19:06;21.00;99.90
19200;DHT22;9732;52.498;5.408;2023-06-10T01:21:34;21.00;99.90
19200;DHT22;9732;52.498;5.408;2023-06-10T01:24:01;21.00;99.90
19200;DHT22;9732;52.498;5.408;2023-06-10T01:26:30;20.90;99.90
19200;DHT22;9732;52.498;5.408;2023-06-10T01:29:02;20.90;99.90
19200;DHT22;9732;52.498;5.408;2023-06-10T01:31:33;20.80;99.90
19200;DHT22;9732;52.498;5.408;2023-06-10T01:34:06;20.80;99.90
19200;DHT22;9732;52.498;5.408;2023-06-10T01:36:35;20.80;99.90
19200;DHT22;9732;52.498;5.408;2023-06-10T01:39:04;20.80;99.90
19200;DHT22;9732;52.498;5.408;2023-06-10T01:41:31;20.70;99.90
19200;DHT22;9732;52.498;5.408;2023-06-10T01:43:59;20.70;99.90
19200;DHT22;9732;52.498;5.408;2023-06-10T01:46:25;20.60;99.90
19200;DHT22;9732;52.498;5.408;2023-06-10T01:48:52;20.60;99.90
19200;DHT22;9732;52.498;5.408;2023-06-10T01:51:19;20.50;99.90
19200;DHT22;9732;52.498;5.408;2023-06-10T01:53:47;20.50;99.90
19200;DHT22;9732;52.498;5.408;2023-06-10T01:56:14;20.50;99.90
19200;DHT22;9732;52.498;5.408;2023-06-10T01:58:43;20.50;99.90
19200;DHT22;9732;52.498;5.408;2023-06-10T02:01:10;20.50;99.90
19200;DHT22;9732;52.498;5.408;2023-06-10T02:03:37;20.50;99.90
19200;DHT22;9732;52.498;5.408;2023-06-10T02:06:04;20.50;99.90
19200;DHT22;9732;52.498;5.408;2023-06-10T02:08:30;20.40;99.90
19200;DHT22;9732;52.498;5.408;2023-06-10T02:10:58;20.30;99.90
19200;DHT22;9732;52.498;5.408;2023-06-10T02:13:25;20.30;99.90
19200;DHT22;9732;52.498;5.408;2023-06-10T02:15:52;20.20;99.90
19200;DHT22;9732;52.498;5.408;2023-06-10T02:18:19;20.20;99.90
19200;DHT22;9732;52.498;5.408;2023-06-10T02:20:47;20.10;99.90
19200;DHT22;9732;52.498;5.408;2023-06-10T02:23:14;20.10;99.90
19200;DHT22;9732;52.498;5.408;2023-06-10T02:25:40;20.10;99.90
19200;DHT22;9732;52.498;5.408;2023-06-10T02:28:08;20.10;99.90
19200;DHT22;9732;52.498;5.408;2023-06-10T02:30:35;20.10;99.90
19200;DHT22;9732;52.498;5.408;2023-06-10T02:33:02;20.10;99.90
19200;DHT22;9732;52.498;5.408;2023-06-10T02:35:29;20.10;99.90
19200;DHT22;9732;52.498;5.408;2023-06-10T02:37:55;20.00;99.90
19200;DHT22;9732;52.498;5.408;2023-06-10T02:40:22;20.00;99.90
19200;DHT22;9732;52.498;5.408;2023-06-10T02:42:49;19.90;99.90
19200;DHT22;9732;52.498;5.408;2023-06-10T02:45:17;19.90;99.90
19200;DHT22;9732;52.498;5.408;2023-06-10T02:47:44;19.90;99.90
19200;DHT22;9732;52.498;5.408;2023-06-10T02:50:11;19.90;99.90
19200;DHT22;9732;52.498;5.408;2023-06-10T02:52:39;19.90;99.90
19200;DHT22;9732;52.498;5.408;2023-06-10T02:55:07;19.80;99.90
19200;DHT22;9732;52.498;5.408;2023-06-10T02:57:33;19.80;99.90
19200;DHT22;9732;52.498;5.408;2023-06-10T03:00:03;19.80;99.90
19200;DHT22;9732;52.498;5.408;2023-06-10T03:02:37;19.80;99.90
19200;DHT22;9732;52.498;5.408;2023-06-10T03:05:06;19.70;99.90
19200;DHT22;9732;52.498;5.408;2023-06-10T03:07:36;19.70;99.90
19200;DHT22;9732;52.498;5.408;2023-06-10T03:10:05;19.70;99.90
19200;DHT22;9732;52.498;5.408;2023-06-10T03:12:32;19.70;99.90
19200;DHT22;9732;52.498;5.408;2023-06-10T03:14:59;19.60;99.90
19200;DHT22;9732;52.498;5.408;2023-06-10T03:17:26;19.60;99.90
19200;DHT22;9732;52.498;5.408;2023-06-10T03:19:54;19.60;99.90
19200;DHT22;9732;52.498;5.408;2023-06-10T03:22:22;19.60;99.90
19200;DHT22;9732;52.498;5.408;2023-06-10T03:24:50;19.60;99.90
19200;DHT22;9732;52.498;5.408;2023-06-10T03:27:18;19.60;99.90
19200;DHT22;9732;52.498;5.408;2023-06-10T03:29:45;19.50;99.90
19200;DHT22;9732;52.498;5.408;2023-06-10T03:32:12;19.50;99.90
19200;DHT22;9732;52.498;5.408;2023-06-10T03:34:40;19.50;99.90
19200;DHT22;9732;52.498;5.408;2023-06-10T03:37:09;19.40;99.90
19200;DHT22;9732;52.498;5.408;2023-06-10T03:39:36;19.40;99.90
19200;DHT22;9732;52.498;5.408;2023-06-10T03:42:04;19.40;99.90
19200;DHT22;9732;52.498;5.408;2023-06-10T03:44:31;19.30;99.90
19200;DHT22;9732;52.498;5.408;2023-06-10T03:46:59;19.30;99.90
19200;DHT22;9732;52.498;5.408;2023-06-10T03:49:26;19.30;99.90
19200;DHT22;9732;52.498;5.408;2023-06-10T03:51:54;19.20;99.90
19200;DHT22;9732;52.498;5.408;2023-06-10T03:54:23;19.20;99.90
19200;DHT22;9732;52.498;5.408;2023-06-10T03:56:50;19.30;99.90
19200;DHT22;9732;52.498;5.408;2023-06-10T03:59:17;19.20;99.90
19200;DHT22;9732;52.498;5.408;2023-06-10T04:01:44;19.20;99.90
19200;DHT22;9732;52.498;5.408;2023-06-10T04:04:14;19.20;99.90
19200;DHT22;9732;52.498;5.408;2023-06-10T04:06:41;19.20;99.90
19200;DHT22;9732;52.498;5.408;2023-06-10T04:09:10;19.20;99.90
19200;DHT22;9732;52.498;5.408;2023-06-10T04:11:39;19.20;99.90
19200;DHT22;9732;52.498;5.408;2023-06-10T04:14:07;19.20;99.90
19200;DHT22;9732;52.498;5.408;2023-06-10T04:16:35;19.20;99.90
19200;DHT22;9732;52.498;5.408;2023-06-10T04:19:09;19.10;99.90
19200;DHT22;9732;52.498;5.408;2023-06-10T04:21:36;19.10;99.90
19200;DHT22;9732;52.498;5.408;2023-06-10T04:24:04;19.10;99.90
19200;DHT22;9732;52.498;5.408;2023-06-10T04:26:31;19.10;99.90
19200;DHT22;9732;52.498;5.408;2023-06-10T04:29:01;19.10;99.90
19200;DHT22;9732;52.498;5.408;2023-06-10T04:31:28;19.20;99.90
19200;DHT22;9732;52.498;5.408;2023-06-10T04:33:56;19.20;99.90
19200;DHT22;9732;52.498;5.408;2023-06-10T04:36:23;19.10;99.90
19200;DHT22;9732;52.498;5.408;2023-06-10T04:38:51;19.20;99.90
19200;DHT22;9732;52.498;5.408;2023-06-10T04:41:18;19.20;99.90
19200;DHT22;9732;52.498;5.408;2023-06-10T04:43:46;19.20;99.90
19200;DHT22;9732;52.498;5.408;2023-06-10T04:46:14;19.10;99.90
19200;DHT22;9732;52.498;5.408;2023-06-10T04:48:42;19.20;99.90
19200;DHT22;9732;52.498;5.408;2023-06-10T04:51:14;19.10;99.90
19200;DHT22;9732;52.498;5.408;2023-06-10T04:53:42;19.20;99.90
19200;DHT22;9732;52.498;5.408;2023-06-10T04:56:10;19.10;99.90
19200;DHT22;9732;52.498;5.408;2023-06-10T04:58:37;19.10;99.90
19200;DHT22;9732;52.498;5.408;2023-06-10T05:01:04;19.20;99.90
19200;DHT22;9732;52.498;5.408;2023-06-10T05:03:32;19.10;99.90
19200;DHT22;9732;52.498;5.408;2023-06-10T05:06:00;19.20;99.90
19200;DHT22;9732;52.498;5.408;2023-06-10T05:08:29;19.20;99.90
19200;DHT22;9732;52.498;5.408;2023-06-10T05:10:57;19.20;99.90
19200;DHT22;9732;52.498;5.408;2023-06-10T05:13:25;19.30;99.90
19200;DHT22;9732;52.498;5.408;2023-06-10T05:15:52;19.20;99.90
19200;DHT22;9732;52.498;5.408;2023-06-10T05:18:26;19.20;99.90
19200;DHT22;9732;52.498;5.408;2023-06-10T05:20:54;19.20;99.90
19200;DHT22;9732;52.498;5.408;2023-06-10T05:23:21;19.20;99.90
19200;DHT22;9732;52.498;5.408;2023-06-10T05:25:49;19.20;99.90
19200;DHT22;9732;52.498;5.408;2023-06-10T05:28:16;19.20;99.90
19200;DHT22;9732;52.498;5.408;2023-06-10T05:30:43;19.20;99.90
19200;DHT22;9732;52.498;5.408;2023-06-10T05:33:10;19.20;99.90
19200;DHT22;9732;52.498;5.408;2023-06-10T05:35:38;19.30;99.90
19200;DHT22;9732;52.498;5.408;2023-06-10T05:38:08;19.30;99.90
19200;DHT22;9732;52.498;5.408;2023-06-10T05:40:36;19.40;99.90
19200;DHT22;9732;52.498;5.408;2023-06-10T05:43:03;19.50;99.90
19200;DHT22;9732;52.498;5.408;2023-06-10T05:45:30;19.40;99.90
19200;DHT22;9732;52.498;5.408;2023-06-10T05:47:57;19.50;99.90
19200;DHT22;9732;52.498;5.408;2023-06-10T05:50:24;19.40;99.90
19200;DHT22;9732;52.498;5.408;2023-06-10T05:52:52;19.50;99.90
19200;DHT22;9732;52.498;5.408;2023-06-10T05:55:20;19.50;99.90
19200;DHT22;9732;52.498;5.408;2023-06-10T05:57:58;19.50;99.90
19200;DHT22;9732;52.498;5.408;2023-06-10T06:00:26;19.60;99.90
19200;DHT22;9732;52.498;5.408;2023-06-10T06:02:54;19.60;99.90
19200;DHT22;9732;52.498;5.408;2023-06-10T06:05:23;19.60;99.90
19200;DHT22;9732;52.498;5.408;2023-06-10T06:07:50;19.60;99.90
19200;DHT22;9732;52.498;5.408;2023-06-10T06:10:19;19.60;99.90
19200;DHT22;9732;52.498;5.408;2023-06-10T06:12:47;19.70;99.90
19200;DHT22;9732;52.498;5.408;2023-06-10T06:15:13;19.80;99.90
19200;DHT22;9732;52.498;5.408;2023-06-10T06:17:42;19.80;99.90
19200;DHT22;9732;52.498;5.408;2023-06-10T06:20:10;19.80;99.90
19200;DHT22;9732;52.498;5.408;2023-06-10T06:22:38;19.90;99.90
19200;DHT22;9732;52.498;5.408;2023-06-10T06:25:06;19.90;99.90
19200;DHT22;9732;52.498;5.408;2023-06-10T06:27:38;19.90;99.90
19200;DHT22;9732;52.498;5.408;2023-06-10T06:30:08;20.00;99.90
19200;DHT22;9732;52.498;5.408;2023-06-10T06:32:35;20.00;99.90
19200;DHT22;9732;52.498;5.408;2023-06-10T06:35:02;20.10;99.90
19200;DHT22;9732;52.498;5.408;2023-06-10T06:37:31;20.10;99.90
19200;DHT22;9732;52.498;5.408;2023-06-10T06:39:59;20.20;99.90
19200;DHT22;9732;52.498;5.408;2023-06-10T06:42:27;20.30;99.90
19200;DHT22;9732;52.498;5.408;2023-06-10T06:44:55;20.30;99.90
19200;DHT22;9732;52.498;5.408;2023-06-10T06:47:22;20.30;99.90
19200;DHT22;9732;52.498;5.408;2023-06-10T06:49:51;20.40;99.90
19200;DHT22;9732;52.498;5.408;2023-06-10T06:52:18;20.50;99.90
19200;DHT22;9732;52.498;5.408;2023-06-10T06:54:45;20.50;99.90
19200;DHT22;9732;52.498;5.408;2023-06-10T06:57:18;20.60;99.90
19200;DHT22;9732;52.498;5.408;2023-06-10T06:59:46;20.60;99.90
19200;DHT22;9732;52.498;5.408;2023-06-10T07:02:15;20.70;99.90
19200;DHT22;9732;52.498;5.408;2023-06-10T07:04:44;20.80;99.90
19200;DHT22;9732;52.498;5.408;2023-06-10T07:07:12;20.80;99.90
19200;DHT22;9732;52.498;5.408;2023-06-10T07:09:40;20.90;99.90
19200;DHT22;9732;52.498;5.408;2023-06-10T07:12:09;20.90;99.90
19200;DHT22;9732;52.498;5.408;2023-06-10T07:14:36;21.00;99.90
19200;DHT22;9732;52.498;5.408;2023-06-10T07:17:04;21.10;99.90
19200;DHT22;9732;52.498;5.408;2023-06-10T07:19:33;21.20;99.90
19200;DHT22;9732;52.498;5.408;2023-06-10T07:22:01;21.20;99.90
19200;DHT22;9732;52.498;5.408;2023-06-10T07:24:29;21.20;99.90
19200;DHT22;9732;52.498;5.408;2023-06-10T07:26:56;21.30;99.90
19200;DHT22;9732;52.498;5.408;2023-06-10T07:29:23;21.40;99.90
19200;DHT22;9732;52.498;5.408;2023-06-10T07:31:50;21.60;99.90
19200;DHT22;9732;52.498;5.408;2023-06-10T07:34:16;21.60;99.90
19200;DHT22;9732;52.498;5.408;2023-06-10T07:36:45;21.80;99.90
19200;DHT22;9732;52.498;5.408;2023-06-10T07:39:13;21.90;99.90
19200;DHT22;9732;52.498;5.408;2023-06-10T07:41:40;21.90;99.90
19200;DHT22;9732;52.498;5.408;2023-06-10T07:44:07;22.00;99.90
19200;DHT22;9732;52.498;5.408;2023-06-10T07:46:34;22.10;99.90
19200;DHT22;9732;52.498;5.408;2023-06-10T07:49:01;22.20;99.90
19200;DHT22;9732;52.498;5.408;2023-06-10T07:51:29;22.30;99.90
19200;DHT22;9732;52.498;5.408;2023-06-10T07:53:58;22.40;99.90
19200;DHT22;9732;52.498;5.408;2023-06-10T07:56:27;22.50;99.90
19200;DHT22;9732;52.498;5.408;2023-06-10T07:58:54;22.70;99.90
19200;DHT22;9732;52.498;5.408;2023-06-10T08:01:22;22.80;99.90
19200;DHT22;9732;52.498;5.408;2023-06-10T08:03:50;22.90;99.90
19200;DHT22;9732;52.498;5.408;2023-06-10T08:06:17;23.00;99.90
19200;DHT22;9732;52.498;5.408;2023-06-10T08:08:46;23.20;99.90
19200;DHT22;9732;52.498;5.408;2023-06-10T08:11:14;23.20;99.90
19200;DHT22;9732;52.498;5.408;2023-06-10T08:13:41;23.30;99.90
19200;DHT22;9732;52.498;5.408;2023-06-10T08:16:08;23.40;99.90
19200;DHT22;9732;52.498;5.408;2023-06-10T08:18:36;23.60;99.90
19200;DHT22;9732;52.498;5.408;2023-06-10T08:21:03;23.70;99.90
19200;DHT22;9732;52.498;5.408;2023-06-10T08:23:30;23.80;99.90
19200;DHT22;9732;52.498;5.408;2023-06-10T08:25:57;23.90;99.90
19200;DHT22;9732;52.498;5.408;2023-06-10T08:28:26;24.00;99.90
19200;DHT22;9732;52.498;5.408;2023-06-10T08:30:53;24.10;99.90
19200;DHT22;9732;52.498;5.408;2023-06-10T08:33:21;24.10;99.90
19200;DHT22;9732;52.498;5.408;2023-06-10T08:35:47;24.20;99.90
19200;DHT22;9732;52.498;5.408;2023-06-10T08:38:16;24.30;99.90
19200;DHT22;9732;52.498;5.408;2023-06-10T08:40:42;24.40;99.90
19200;DHT22;9732;52.498;5.408;2023-06-10T08:43:17;24.60;99.90
19200;DHT22;9732;52.498;5.408;2023-06-10T08:45:49;24.70;99.90
19200;DHT22;9732;52.498;5.408;2023-06-10T08:48:17;24.80;99.90
19200;DHT22;9732;52.498;5.408;2023-06-10T08:50:47;24.90;99.90
19200;DHT22;9732;52.498;5.408;2023-06-10T08:53:18;25.10;99.90
19200;DHT22;9732;52.498;5.408;2023-06-10T08:55:51;25.10;99.90
19200;DHT22;9732;52.498;5.408;2023-06-10T08:58:19;25.10;99.90
19200;DHT22;9732;52.498;5.408;2023-06-10T09:00:48;25.20;99.90
19200;DHT22;9732;52.498;5.408;2023-06-10T09:03:15;25.30;99.90
19200;DHT22;9732;52.498;5.408;2023-06-10T09:05:42;25.40;99.90
19200;DHT22;9732;52.498;5.408;2023-06-10T09:08:10;25.50;99.90
19200;DHT22;9732;52.498;5.408;2023-06-10T09:10:39;25.50;99.90
19200;DHT22;9732;52.498;5.408;2023-06-10T09:13:07;25.60;99.90
19200;DHT22;9732;52.498;5.408;2023-06-10T09:15:34;25.80;99.90
19200;DHT22;9732;52.498;5.408;2023-06-10T09:18:04;25.90;99.90
19200;DHT22;9732;52.498;5.408;2023-06-10T09:20:31;26.10;99.90
19200;DHT22;9732;52.498;5.408;2023-06-10T09:23:01;26.10;99.90
19200;DHT22;9732;52.498;5.408;2023-06-10T09:25:35;26.20;99.90
19200;DHT22;9732;52.498;5.408;2023-06-10T09:28:03;26.40;99.90
19200;DHT22;9732;52.498;5.408;2023-06-10T09:30:31;26.50;99.90
19200;DHT22;9732;52.498;5.408;2023-06-10T09:33:00;26.60;99.90
19200;DHT22;9732;52.498;5.408;2023-06-10T09:35:30;26.70;99.90
19200;DHT22;9732;52.498;5.408;2023-06-10T09:38:00;26.90;99.90
19200;DHT22;9732;52.498;5.408;2023-06-10T09:40:28;27.00;99.90
19200;DHT22;9732;52.498;5.408;2023-06-10T09:42:56;27.10;99.90
19200;DHT22;9732;52.498;5.408;2023-06-10T09:45:23;27.20;99.90
19200;DHT22;9732;52.498;5.408;2023-06-10T09:47:55;27.40;99.90
19200;DHT22;9732;52.498;5.408;2023-06-10T09:50:23;27.50;99.90
19200;DHT22;9732;52.498;5.408;2023-06-10T09:52:53;27.60;99.90
19200;DHT22;9732;52.498;5.408;2023-06-10T09:55:19;27.70;99.90
19200;DHT22;9732;52.498;5.408;2023-06-10T09:57:49;27.80;99.90
19200;DHT22;9732;52.498;5.408;2023-06-10T10:00:16;28.00;99.90
19200;DHT22;9732;52.498;5.408;2023-06-10T10:02:47;28.30;99.90
19200;DHT22;9732;52.498;5.408;2023-06-10T10:05:14;28.50;99.90
19200;DHT22;9732;52.498;5.408;2023-06-10T10:07:42;28.70;99.90
19200;DHT22;9732;52.498;5.408;2023-06-10T10:10:12;28.90;99.90
19200;DHT22;9732;52.498;5.408;2023-06-10T10:12:41;29.20;99.90
19200;DHT22;9732;52.498;5.408;2023-06-10T10:15:10;29.40;99.90
19200;DHT22;9732;52.498;5.408;2023-06-10T10:17:40;29.70;98.20
19200;DHT22;9732;52.498;5.408;2023-06-10T10:20:13;29.90;99.30
19200;DHT22;9732;52.498;5.408;2023-06-10T10:22:43;30.10;99.10
19200;DHT22;9732;52.498;5.408;2023-06-10T10:25:13;30.40;98.50
19200;DHT22;9732;52.498;5.408;2023-06-10T10:27:47;30.60;98.20
19200;DHT22;9732;52.498;5.408;2023-06-10T10:30:17;30.80;98.50
19200;DHT22;9732;52.498;5.408;2023-06-10T10:32:51;31.00;97.50
19200;DHT22;9732;52.498;5.408;2023-06-10T10:35:21;31.30;97.80
19200;DHT22;9732;52.498;5.408;2023-06-10T10:37:48;31.50;96.30
19200;DHT22;9732;52.498;5.408;2023-06-10T10:40:17;31.80;96.90
19200;DHT22;9732;52.498;5.408;2023-06-10T10:42:44;31.90;95.00
19200;DHT22;9732;52.498;5.408;2023-06-10T10:45:11;32.10;94.20
19200;DHT22;9732;52.498;5.408;2023-06-10T10:47:38;32.20;95.00
19200;DHT22;9732;52.498;5.408;2023-06-10T10:50:14;32.40;94.20
19200;DHT22;9732;52.498;5.408;2023-06-10T10:52:53;32.50;94.20
19200;DHT22;9732;52.498;5.408;2023-06-10T10:55:23;32.70;94.10
19200;DHT22;9732;52.498;5.408;2023-06-10T10:57:57;32.80;93.60
19200;DHT22;9732;52.498;5.408;2023-06-10T11:00:28;33.10;94.00
19200;DHT22;9732;52.498;5.408;2023-06-10T11:02:58;33.20;92.20
19200;DHT22;9732;52.498;5.408;2023-06-10T11:05:41;33.40;92.20
19200;DHT22;9732;52.498;5.408;2023-06-10T11:08:10;33.60;93.60
19200;DHT22;9732;52.498;5.408;2023-06-10T11:10:40;33.80;93.80
19200;DHT22;9732;52.498;5.408;2023-06-10T11:13:09;33.90;91.80
19200;DHT22;9732;52.498;5.408;2023-06-10T11:15:39;34.20;90.80
19200;DHT22;9732;52.498;5.408;2023-06-10T11:18:20;34.30;91.40
19200;DHT22;9732;52.498;5.408;2023-06-10T11:20:58;34.30;92.30
19200;DHT22;9732;52.498;5.408;2023-06-10T11:23:38;34.50;90.50
19200;DHT22;9732;52.498;5.408;2023-06-10T11:26:14;34.50;88.60
19200;DHT22;9732;52.498;5.408;2023-06-10T11:29:00;34.70;88.60
19200;DHT22;9732;52.498;5.408;2023-06-10T11:31:28;34.70;88.70
19200;DHT22;9732;52.498;5.408;2023-06-10T11:33:56;34.70;87.00
19200;DHT22;9732;52.498;5.408;2023-06-10T11:36:24;34.70;90.60
19200;DHT22;9732;52.498;5.408;2023-06-10T11:38:57;34.90;86.10
19200;DHT22;9732;52.498;5.408;2023-06-10T11:41:25;35.10;90.10
19200;DHT22;9732;52.498;5.408;2023-06-10T11:43:52;35.10;89.20
19200;DHT22;9732;52.498;5.408;2023-06-10T11:46:21;35.20;88.60
19200;DHT22;9732;52.498;5.408;2023-06-10T11:48:52;35.40;87.40
19200;DHT22;9732;52.498;5.408;2023-06-10T11:51:19;35.50;87.00
19200;DHT22;9732;52.498;5.408;2023-06-10T11:53:48;35.40;88.90
19200;DHT22;9732;52.498;5.408;2023-06-10T11:56:20;35.60;82.00
19200;DHT22;9732;52.498;5.408;2023-06-10T11:58:53;35.70;83.80
19200;DHT22;9732;52.498;5.408;2023-06-10T12:01:21;35.70;89.40
19200;DHT22;9732;52.498;5.408;2023-06-10T12:03:57;35.50;87.80
19200;DHT22;9732;52.498;5.408;2023-06-10T12:06:25;35.20;89.10
19200;DHT22;9732;52.498;5.408;2023-06-10T12:08:53;35.30;87.90
19200;DHT22;9732;52.498;5.408;2023-06-10T12:11:21;35.40;88.30
19200;DHT22;9732;52.498;5.408;2023-06-10T12:13:50;35.40;88.90
19200;DHT22;9732;52.498;5.408;2023-06-10T12:16:17;35.30;89.50
19200;DHT22;9732;52.498;5.408;2023-06-10T12:18:46;35.00;90.10
19200;DHT22;9732;52.498;5.408;2023-06-10T12:21:17;35.00;90.30
19200;DHT22;9732;52.498;5.408;2023-06-10T12:24:06;35.10;90.10
19200;DHT22;9732;52.498;5.408;2023-06-10T12:26:43;35.20;89.30
19200;DHT22;9732;52.498;5.408;2023-06-10T12:29:20;35.30;90.40
19200;DHT22;9732;52.498;5.408;2023-06-10T12:32:01;35.40;89.20
19200;DHT22;9732;52.498;5.408;2023-06-10T12:34:35;35.40;90.50
19200;DHT22;9732;52.498;5.408;2023-06-10T12:37:04;35.50;89.50
19200;DHT22;9732;52.498;5.408;2023-06-10T12:39:32;35.50;85.10
19200;DHT22;9732;52.498;5.408;2023-06-10T12:41:59;35.70;86.10
19200;DHT22;9732;52.498;5.408;2023-06-10T12:44:32;35.80;85.70
19200;DHT22;9732;52.498;5.408;2023-06-10T12:47:00;35.80;87.90
19200;DHT22;9732;52.498;5.408;2023-06-10T12:49:27;35.80;88.80
19200;DHT22;9732;52.498;5.408;2023-06-10T12:51:53;35.80;88.50
19200;DHT22;9732;52.498;5.408;2023-06-10T12:54:20;35.90;87.90
19200;DHT22;9732;52.498;5.408;2023-06-10T12:56:47;36.00;89.00
19200;DHT22;9732;52.498;5.408;2023-06-10T12:59:14;35.80;86.10
19200;DHT22;9732;52.498;5.408;2023-06-10T13:01:42;35.90;86.20
19200;DHT22;9732;52.498;5.408;2023-06-10T13:04:09;35.80;86.90
19200;DHT22;9732;52.498;5.408;2023-06-10T13:06:35;35.60;84.10
19200;DHT22;9732;52.498;5.408;2023-06-10T13:09:07;35.50;84.40
19200;DHT22;9732;52.498;5.408;2023-06-10T13:11:34;35.50;87.00
19200;DHT22;9732;52.498;5.408;2023-06-10T13:14:02;35.60;82.80
19200;DHT22;9732;52.498;5.408;2023-06-10T13:16:30;35.40;80.00
19200;DHT22;9732;52.498;5.408;2023-06-10T13:18:58;35.10;78.30
19200;DHT22;9732;52.498;5.408;2023-06-10T13:21:26;35.20;82.20
19200;DHT22;9732;52.498;5.408;2023-06-10T13:23:53;35.30;79.70
19200;DHT22;9732;52.498;5.408;2023-06-10T13:26:19;35.40;78.10
19200;DHT22;9732;52.498;5.408;2023-06-10T13:28:47;35.40;79.10
19200;DHT22;9732;52.498;5.408;2023-06-10T13:31:14;35.20;79.70
19200;DHT22;9732;52.498;5.408;2023-06-10T13:33:41;35.20;78.00
19200;DHT22;9732;52.498;5.408;2023-06-10T13:36:10;35.40;80.50
19200;DHT22;9732;52.498;5.408;2023-06-10T13:38:37;35.40;76.10
19200;DHT22;9732;52.498;5.408;2023-06-10T13:41:04;35.50;78.70
19200;DHT22;9732;52.498;5.408;2023-06-10T13:43:31;35.50;75.90
19200;DHT22;9732;52.498;5.408;2023-06-10T13:45:58;35.50;75.10
19200;DHT22;9732;52.498;5.408;2023-06-10T13:48:25;35.50;74.80
19200;DHT22;9732;52.498;5.408;2023-06-10T13:50:52;35.50;72.70
19200;DHT22;9732;52.498;5.408;2023-06-10T13:53:20;35.60;76.90
19200;DHT22;9732;52.498;5.408;2023-06-10T13:55:47;35.50;86.70
19200;DHT22;9732;52.498;5.408;2023-06-10T13:58:13;35.30;92.70
19200;DHT22;9732;52.498;5.408;2023-06-10T14:00:40;34.90;85.10
19200;DHT22;9732;52.498;5.408;2023-06-10T14:03:07;34.90;93.00
19200;DHT22;9732;52.498;5.408;2023-06-10T14:05:34;34.40;92.30
19200;DHT22;9732;52.498;5.408;2023-06-10T14:08:01;34.10;93.90
19200;DHT22;9732;52.498;5.408;2023-06-10T14:10:29;33.90;95.60
19200;DHT22;9732;52.498;5.408;2023-06-10T14:12:56;33.60;94.40
19200;DHT22;9732;52.498;5.408;2023-06-10T14:15:23;33.50;95.60
19200;DHT22;9732;52.498;5.408;2023-06-10T14:17:49;33.40;89.80
19200;DHT22;9732;52.498;5.408;2023-06-10T14:20:16;33.50;85.90
19200;DHT22;9732;52.498;5.408;2023-06-10T14:22:43;33.50;90.90
19200;DHT22;9732;52.498;5.408;2023-06-10T14:25:10;33.40;92.70
19200;DHT22;9732;52.498;5.408;2023-06-10T14:27:38;33.30;92.50
19200;DHT22;9732;52.498;5.408;2023-06-10T14:30:06;33.20;96.20
19200;DHT22;9732;52.498;5.408;2023-06-10T14:32:33;32.90;94.50
19200;DHT22;9732;52.498;5.408;2023-06-10T14:35:00;32.70;87.00
19200;DHT22;9732;52.498;5.408;2023-06-10T14:37:26;32.90;94.10
19200;DHT22;9732;52.498;5.408;2023-06-10T14:39:53;32.90;91.00
19200;DHT22;9732;52.498;5.408;2023-06-10T14:42:20;32.80;87.50
19200;DHT22;9732;52.498;5.408;2023-06-10T14:44:48;32.80;84.50
19200;DHT22;9732;52.498;5.408;2023-06-10T14:47:15;32.90;87.60
19200;DHT22;9732;52.498;5.408;2023-06-10T14:49:42;32.90;84.60
19200;DHT22;9732;52.498;5.408;2023-06-10T14:52:09;32.80;83.40
19200;DHT22;9732;52.498;5.408;2023-06-10T14:54:36;32.80;78.00
19200;DHT22;9732;52.498;5.408;2023-06-10T14:57:03;32.80;85.90
19200;DHT22;9732;52.498;5.408;2023-06-10T14:59:31;32.80;81.40
19200;DHT22;9732;52.498;5.408;2023-06-10T15:01:59;32.70;81.10
19200;DHT22;9732;52.498;5.408;2023-06-10T15:04:26;32.60;80.20
19200;DHT22;9732;52.498;5.408;2023-06-10T15:06:53;32.50;79.70
19200;DHT22;9732;52.498;5.408;2023-06-10T15:09:20;32.50;80.60
19200;DHT22;9732;52.498;5.408;2023-06-10T15:11:47;32.40;78.80
19200;DHT22;9732;52.498;5.408;2023-06-10T15:14:13;32.50;82.00
19200;DHT22;9732;52.498;5.408;2023-06-10T15:16:40;32.30;80.80
19200;DHT22;9732;52.498;5.408;2023-06-10T15:19:08;32.30;78.70
19200;DHT22;9732;52.498;5.408;2023-06-10T15:21:35;32.20;80.40
19200;DHT22;9732;52.498;5.408;2023-06-10T15:24:03;32.20;81.00
19200;DHT22;9732;52.498;5.408;2023-06-10T15:26:30;32.10;80.50
19200;DHT22;9732;52.498;5.408;2023-06-10T15:28:56;32.00;77.60
19200;DHT22;9732;52.498;5.408;2023-06-10T15:31:23;31.90;76.50
19200;DHT22;9732;52.498;5.408;2023-06-10T15:33:50;31.60;74.00
19200;DHT22;9732;52.498;5.408;2023-06-10T15:36:18;31.60;78.60
19200;DHT22;9732;52.498;5.408;2023-06-10T15:38:45;31.50;75.90
19200;DHT22;9732;52.498;5.408;2023-06-10T15:41:12;31.50;78.70
19200;DHT22;9732;52.498;5.408;2023-06-10T15:43:39;31.50;79.60
19200;DHT22;9732;52.498;5.408;2023-06-10T15:46:07;31.50;75.50
19200;DHT22;9732;52.498;5.408;2023-06-10T15:48:34;31.40;75.20
19200;DHT22;9732;52.498;5.408;2023-06-10T15:51:01;31.40;77.00
19200;DHT22;9732;52.498;5.408;2023-06-10T15:53:29;31.40;78.20